Fort Drum, NY

9:04 AM EDT on August 22, 2017 (GMT -0400)
Wheeler-Sack Army Air Field

Weather History for KGTB - February, 2013

Change the Weather History Date:

Monday, February 11, 2013

  Actual Average Record
Temperature  
Mean Temperature 35 °F -  
Max Temperature 41 °F 26 °F 48 °F (1999)
Min Temperature 29 °F 8 °F -18 °F (2003)
Degree Days  
Heating Degree Days 30    
Moisture  
Dew Point 31 °F    
Average Humidity 86    
Maximum Humidity 100    
Minimum Humidity 44    
Precipitation  
Precipitation 0.26 in - - ()
Sea Level Pressure  
Sea Level Pressure 29.70 in    
Wind  
Wind Speed 16 mph (SSW)    
Max Wind Speed 25 mph    
Max Gust Speed 34 mph    
Visibility 9 miles    
Events Rain , Snow    
Averages and records for this station are not official NWS values.
T = Trace of Precipitation, MM = Missing Value Source: NWS Daily Summary

Daily Weather History Graph

Daily Weather History Graph

Search for Another Location

Airport or City:

Trip Planner

Search our weather history database for the weather conditions in past years. The results will help you decide how hot, cold, wet, or windy it might be!

Date:

Astronomy

Feb. 11, 2013 Rise Set
Actual Time 7:07 AM EST 5:27 PM EST
Civil Twilight 6:37 AM EST 5:57 PM EST
Nautical Twilight 6:03 AM EST 6:31 PM EST
Astronomical Twilight 5:30 AM EST 7:04 PM EST
Moon 7:25 AM EST (2/11) 7:27 PM EST (2/11)
Length of Visible Light 11h 19m
Length of Day
10h 19m
Waxing Crescent, 3% of the Moon is Illuminated
Feb 11
Waxing Crescent
Feb 17
First Quarter
Feb 25
Full
Mar 4
Last Quarter
Mar 11
New

Hourly Weather History & Observations

Time (EST) Temp. Windchill Dew Point Humidity Pressure Visibility Wind Dir Wind Speed Gust Speed Precip Events Conditions
12:55 AM 29.7 °F 17.1 °F 11.5 °F 47% 30.04 in 10.0 mi SSE 19.6 mph - N/A   Mostly Cloudy
1:55 AM 30.9 °F 22.2 °F 11.5 °F 44% 30.04 in 10.0 mi SSE 10.4 mph - N/A   Mostly Cloudy
2:55 AM 30.9 °F 19.4 °F 12.9 °F 47% 29.97 in 10.0 mi SSE 17.3 mph - N/A   Partly Cloudy
3:55 AM 31.1 °F 18.6 °F 15.1 °F 52% 29.93 in 10.0 mi SSE 20.7 mph 27.6 mph N/A   Mostly Cloudy
4:55 AM 31.6 °F 20.7 °F 15.1 °F 50% 29.91 in 10.0 mi SSE 16.1 mph - N/A   Mostly Cloudy
5:55 AM 31.6 °F 20.4 °F 17.2 °F 55% 29.84 in 10.0 mi SSE 17.3 mph 24.2 mph N/A   Mostly Cloudy
6:55 AM 32.2 °F 22.7 °F 19.8 °F 60% 29.83 in 10.0 mi SSE 12.7 mph - N/A   Overcast
7:51 AM 33.8 °F 25.3 °F 24.8 °F 70% 29.82 in 10.0 mi South 11.5 mph - N/A   Light Drizzle
7:55 AM 33.6 °F 22.6 °F 25.0 °F 71% 29.82 in 10.0 mi South 18.4 mph - 0.00 in   Light Drizzle
8:10 AM 33.8 °F 22.5 °F 28.4 °F 81% 29.81 in 10.0 mi South 19.6 mph - N/A   Overcast
8:18 AM 33.8 °F 23.9 °F 28.4 °F 81% 29.81 in 10.0 mi South 15.0 mph 26.5 mph N/A   Light Drizzle
8:24 AM 33.8 °F 23.2 °F 28.4 °F 81% 29.81 in 10.0 mi South 17.3 mph - N/A   Overcast
8:35 AM 33.8 °F 23.9 °F 28.4 °F 81% 29.81 in 10.0 mi South 15.0 mph - N/A Rain Light Rain
8:55 AM 34.2 °F 25.7 °F 30.0 °F 85% 29.80 in 10.0 mi South 11.5 mph - 0.00 in Rain Light Rain
8:56 AM 33.8 °F 25.3 °F 30.2 °F 87% 29.80 in 10.0 mi South 11.5 mph - N/A Rain Light Rain
9:00 AM 33.8 °F 24.3 °F 30.2 °F 87% 29.80 in 10.0 mi South 13.8 mph 20.7 mph N/A Rain Light Rain
9:01 AM 33.8 °F 23.5 °F 30.2 °F 87% 29.80 in 10.0 mi South 16.1 mph 20.7 mph N/A Rain Light Rain
9:05 AM 33.8 °F 23.2 °F 30.2 °F 87% 29.79 in 10.0 mi South 17.3 mph 20.7 mph N/A Rain Light Rain
9:23 AM 33.8 °F 22.8 °F 30.2 °F 87% 29.78 in 10.0 mi SSE 18.4 mph - N/A   Overcast
9:55 AM 34.0 °F 24.2 °F 31.6 °F 91% 29.76 in 10.0 mi South 15.0 mph - 0.00 in   Overcast
9:57 AM 33.8 °F 23.5 °F 32.0 °F 93% 29.76 in 10.0 mi SSE 16.1 mph - N/A   Overcast
10:30 AM 33.8 °F 23.2 °F 32.0 °F 93% 29.73 in 10.0 mi SSE 17.3 mph - N/A   Overcast
10:43 AM 33.8 °F 23.2 °F 32.0 °F 93% 29.72 in 10.0 mi SSE 17.3 mph - N/A   Overcast
10:55 AM 35.1 °F 24.5 °F 33.1 °F 92% 29.71 in 10.0 mi SSE 18.4 mph - 0.01 in   Overcast
11:17 AM 35.6 °F 24.8 °F 33.8 °F 93% 29.71 in 10.0 mi South 19.6 mph - N/A   Overcast
11:23 AM 35.6 °F 24.2 °F 33.8 °F 93% 29.71 in 8.0 mi South 21.9 mph - N/A Rain Light Rain
11:24 AM 35.6 °F 24.2 °F 33.8 °F 93% 29.71 in 8.0 mi South 21.9 mph - N/A Rain Light Rain
11:25 AM 35.6 °F 24.5 °F 33.8 °F 93% 29.71 in 7.0 mi South 20.7 mph - N/A Rain Light Rain
11:27 AM 35.6 °F 24.8 °F 33.8 °F 93% 29.70 in 7.0 mi SSE 19.6 mph - N/A Rain Light Rain
11:34 AM 35.6 °F 25.2 °F 33.8 °F 93% 29.70 in 8.0 mi SSE 18.4 mph - N/A   Overcast
11:36 AM 35.6 °F 25.2 °F 33.8 °F 93% 29.70 in 9.0 mi SSE 18.4 mph - N/A   Overcast
11:37 AM 35.6 °F 24.8 °F 33.8 °F 93% 29.70 in 9.0 mi SSE 19.6 mph - N/A   Overcast
11:48 AM 35.6 °F 25.5 °F 33.8 °F 93% 29.69 in 10.0 mi SSE 17.3 mph - N/A   Overcast
11:54 AM 35.6 °F 25.9 °F 33.8 °F 93% 29.69 in 10.0 mi SSE 16.1 mph - N/A Rain Light Rain
11:55 AM 35.2 °F 24.7 °F 34.2 °F 96% 29.68 in 10.0 mi SSE 18.4 mph - 0.07 in   Light Drizzle
12:09 PM 35.6 °F 25.5 °F 33.8 °F 93% 29.67 in 10.0 mi SSE 17.3 mph - N/A   Overcast
12:55 PM 36.7 °F 26.9 °F 35.1 °F 94% 29.65 in 10.0 mi SSE 17.3 mph - 0.00 in   Overcast
1:47 PM 39.2 °F 31.6 °F 35.6 °F 87% 29.60 in 10.0 mi SE 12.7 mph - N/A   Overcast
1:55 PM 39.2 °F 32.0 °F 36.0 °F 88% 29.60 in 10.0 mi SSE 11.5 mph - N/A   Overcast
2:55 PM 39.9 °F 32.1 °F 35.6 °F 85% 29.57 in 10.0 mi SE 13.8 mph - N/A   Overcast
3:20 PM 39.2 °F 32.0 °F 35.6 °F 87% 29.57 in 10.0 mi SE 11.5 mph - N/A Rain Light Rain
3:44 PM 39.2 °F 35.9 °F 35.6 °F 87% 29.59 in 5.0 mi Variable 4.6 mph - N/A Rain Light Rain
3:46 PM 39.2 °F 35.0 °F 37.4 °F 93% 29.59 in 4.0 mi SSW 5.8 mph - N/A Rain Rain
3:55 PM 41.2 °F 35.0 °F 39.2 °F 93% 29.59 in 8.0 mi SW 10.4 mph - 0.03 in Rain Light Rain
4:38 PM 41.0 °F 35.8 °F 41.0 °F 100% 29.60 in 9.0 mi WSW 8.1 mph - N/A Rain Light Rain
4:44 PM 41.0 °F 35.8 °F 41.0 °F 100% 29.61 in 6.0 mi West 8.1 mph - N/A Rain Rain
4:55 PM 39.9 °F 31.8 °F 39.4 °F 98% 29.61 in 5.0 mi WSW 15.0 mph 23.0 mph 0.05 in Rain Rain
4:58 PM 39.2 °F 32.5 °F 39.2 °F 100% 29.62 in 6.0 mi WSW 10.4 mph 23.0 mph N/A Rain Rain
5:00 PM 39.2 °F 32.0 °F 39.2 °F 100% 29.62 in 7.0 mi WSW 11.5 mph 23.0 mph N/A Rain Rain
5:03 PM 39.2 °F 30.2 °F 39.2 °F 100% 29.62 in 7.0 mi WSW 17.3 mph 23.0 mph N/A Rain Light Rain
5:37 PM 37.4 °F 28.9 °F 37.4 °F 100% 29.63 in 6.0 mi WSW 13.8 mph 23.0 mph N/A Rain Light Rain
5:38 PM 37.4 °F 28.9 °F 37.4 °F 100% 29.63 in 6.0 mi SW 13.8 mph 23.0 mph N/A Rain Light Rain
5:55 PM 36.3 °F 27.5 °F 36.1 °F 99% 29.63 in 10.0 mi SW 13.8 mph 23.0 mph 0.07 in Rain Light Rain
6:19 PM 35.6 °F 26.6 °F 35.6 °F 100% 29.63 in 10.0 mi SW 13.8 mph 28.8 mph N/A   Light Drizzle
6:22 PM 35.6 °F 25.5 °F 35.6 °F 100% 29.63 in 10.0 mi SW 17.3 mph 23.0 mph N/A   Light Drizzle
6:23 PM 35.6 °F 26.6 °F 35.6 °F 100% 29.64 in 10.0 mi SW 13.8 mph 23.0 mph N/A   Overcast
6:26 PM 35.6 °F 25.9 °F 35.6 °F 100% 29.63 in 10.0 mi SW 16.1 mph 23.0 mph N/A   Mostly Cloudy
6:55 PM 36.3 °F 26.8 °F 31.6 °F 83% 29.63 in 10.0 mi WSW 16.1 mph 28.8 mph 0.02 in   Scattered Clouds
7:31 PM 35.6 °F 25.2 °F 30.2 °F 81% 29.65 in 10.0 mi WSW 18.4 mph 27.6 mph N/A   Overcast
7:49 PM 35.6 °F 23.4 °F 30.2 °F 81% 29.65 in 10.0 mi WSW 25.3 mph 33.4 mph N/A   Overcast
7:55 PM 35.6 °F 24.8 °F 29.7 °F 79% 29.65 in 6.0 mi West 19.6 mph 34.5 mph 0.01 in Snow Light Snow
8:09 PM 35.6 °F 23.7 °F 30.2 °F 81% 29.65 in 10.0 mi West 24.2 mph 31.1 mph N/A   Overcast
8:17 PM 33.8 °F 23.2 °F 30.2 °F 87% 29.65 in 10.0 mi WSW 17.3 mph 29.9 mph N/A   Mostly Cloudy
8:55 PM 34.2 °F 24.4 °F 30.4 °F 86% 29.65 in 10.0 mi WSW 15.0 mph 27.6 mph 0.00 in   Mostly Cloudy
8:57 PM 33.8 °F 22.5 °F 30.2 °F 87% 29.65 in 10.0 mi WSW 19.6 mph 27.6 mph N/A   Mostly Cloudy
9:04 PM 33.8 °F 22.2 °F 30.2 °F 87% 29.65 in 10.0 mi WSW 20.7 mph 28.8 mph N/A   Overcast
9:05 PM 33.8 °F 22.8 °F 30.2 °F 87% 29.65 in 10.0 mi WSW 18.4 mph 32.2 mph N/A   Overcast
9:06 PM 33.8 °F 22.2 °F 30.2 °F 87% 29.65 in 10.0 mi WSW 20.7 mph 34.5 mph N/A   Overcast
9:20 PM 33.8 °F 23.2 °F 30.2 °F 87% 29.65 in 10.0 mi WSW 17.3 mph 26.5 mph N/A   Overcast
9:21 PM 33.8 °F 22.5 °F 30.2 °F 87% 29.65 in 10.0 mi WSW 19.6 mph 26.5 mph N/A   Overcast
9:49 PM 33.8 °F 24.3 °F 30.2 °F 87% 29.66 in 10.0 mi West 13.8 mph 27.6 mph N/A   Overcast
9:52 PM 33.8 °F 22.8 °F 30.2 °F 87% 29.66 in 10.0 mi WSW 18.4 mph 27.6 mph N/A Rain Light Rain
9:53 PM 33.8 °F 22.5 °F 30.2 °F 87% 29.66 in 10.0 mi WSW 19.6 mph 29.9 mph N/A Rain Light Rain
9:54 PM 33.8 °F 22.8 °F 30.2 °F 87% 29.66 in 10.0 mi WSW 18.4 mph 29.9 mph N/A Rain Light Rain
9:55 PM 34.2 °F 23.6 °F 29.8 °F 84% 29.66 in 10.0 mi WSW 17.3 mph 29.9 mph 0.00 in Rain Light Rain
10:04 PM 33.8 °F 23.2 °F 30.2 °F 87% 29.66 in 10.0 mi West 17.3 mph 24.2 mph N/A   Overcast
10:05 PM 33.8 °F 22.8 °F 30.2 °F 87% 29.66 in 10.0 mi West 18.4 mph 24.2 mph N/A Rain Light Rain
10:45 PM 33.8 °F 23.2 °F 30.2 °F 87% 29.65 in 10.0 mi WSW 17.3 mph 25.3 mph N/A Rain Light Rain
10:49 PM 33.8 °F 23.5 °F 30.2 °F 87% 29.65 in 10.0 mi WSW 16.1 mph 26.5 mph N/A Rain Light Rain
10:55 PM 34.0 °F 24.2 °F 29.7 °F 84% 29.65 in 10.0 mi WSW 15.0 mph 26.5 mph 0.00 in Rain Light Rain
11:17 PM 33.8 °F 23.5 °F 30.2 °F 87% 29.64 in 10.0 mi WSW 16.1 mph 21.9 mph N/A Rain Light Rain
11:30 PM 33.8 °F 24.8 °F 30.2 °F 87% 29.64 in 10.0 mi West 12.7 mph 23.0 mph N/A Rain Light Rain
11:31 PM 33.8 °F 24.8 °F 30.2 °F 87% 29.64 in 10.0 mi WSW 12.7 mph 21.9 mph N/A   Overcast
11:32 PM 33.8 °F 24.3 °F 30.2 °F 87% 29.64 in 10.0 mi WSW 13.8 mph 21.9 mph N/A   Overcast
11:33 PM 33.8 °F 24.8 °F 30.2 °F 87% 29.64 in 10.0 mi WSW 12.7 mph 21.9 mph N/A Rain Light Rain
11:34 PM 33.8 °F 25.3 °F 30.2 °F 87% 29.64 in 10.0 mi WSW 11.5 mph 20.7 mph N/A Rain Light Rain
11:55 PM 34.2 °F 25.2 °F 30.0 °F 85% 29.64 in 10.0 mi WSW 12.7 mph 25.3 mph 0.00 in Rain Light Rain
11:56 PM 33.8 °F 25.3 °F 30.2 °F 87% 29.64 in 10.0 mi WSW 11.5 mph 25.3 mph N/A   Overcast